Aviation Digital Data Service (ADDS)

Output produced by TAFs form (1813 UTC 25 October 2014)
found at http://aviationweather.gov/adds/tafs/
 
KCNY 251744Z 2518/2618 16008KT P6SM SKC 
     FM252000 22012G20KT P6SM SKC 
     FM260100 22004KT P6SM SCT250 
     FM261600 23012G22KT P6SM BKN150